Terminal Aerodrome Forecast
Issued by NWS Northern Indiana

Home | Current Version | Previous Version | Text Only | Print | Product List | Glossary Off
Versions: 1 2 3 4 5 6 7 8 9 10 11 12 13 14 15 16

000
FTUS43 KIWX 240500
TAFFWA
TAF
KFWA 240520Z 2406/2506 VRB02KT P6SM BKN200
     FM240800 19003KT 5SM BR SCT050 BKN150
     FM241300 23005KT P6SM BKN040
     FM241600 22007KT P6SM BKN030
     FM242100 22005KT P6SM SCT030 BKN250=

USA.gov is the U.S. government's official web portal to all federal, state and local government web resources and services.